Time;durP1;ratioP1;P1;durP2;ratioP2;P2;SDS_P1;SDS_P2;PMS_P1;PMS_P2;Temp;Humidity;BMP_temperature;BMP_pressure;BME280_temperature;BME280_humidity;BME280_pressure;Samples;Min_cycle;Max_cycle;Signal;HPM_P1;HPM_P2
2024/01/04 00:00:16;;;;;;;7.13;1.83;;;8.50;99.90;;;;;;5071780;28;20228;-76
2024/01/04 00:02:45;;;;;;;1.20;0.80;;;8.60;99.90;;;;;;5071196;28;20187;-76
2024/01/04 00:05:10;;;;;;;1.63;0.80;;;8.70;99.90;;;;;;5074588;28;20401;-76
2024/01/04 00:07:37;;;;;;;1.57;0.90;;;8.90;99.90;;;;;;5076353;28;20401;-76
2024/01/04 00:10:03;;;;;;;2.77;1.43;;;9.00;99.90;;;;;;5076243;28;20177;-76
2024/01/04 00:12:28;;;;;;;4.87;2.30;;;9.10;99.90;;;;;;5074405;28;20416;-74
2024/01/04 00:14:54;;;;;;;4.30;1.30;;;9.30;99.90;;;;;;5073478;28;20182;-74
2024/01/04 00:17:20;;;;;;;2.20;1.10;;;9.20;99.90;;;;;;5074842;28;20241;-74
2024/01/04 00:19:46;;;;;;;2.83;1.10;;;9.30;99.90;;;;;;5074869;28;20186;-76
2024/01/04 00:22:11;;;;;;;4.17;1.90;;;9.40;99.90;;;;;;5076096;28;20412;-76
2024/01/04 00:24:37;;;;;;;3.03;1.20;;;9.50;99.90;;;;;;5075827;28;20178;-76
2024/01/04 00:27:03;;;;;;;2.97;1.50;;;9.50;99.90;;;;;;5076149;28;20166;-76
2024/01/04 00:29:28;;;;;;;1.83;1.43;;;9.60;99.90;;;;;;5075969;28;20198;-76
2024/01/04 00:31:55;;;;;;;2.70;1.30;;;9.60;99.90;;;;;;5076008;28;20174;-76
2024/01/04 00:34:20;;;;;;;1.63;1.00;;;9.70;99.90;;;;;;5074568;28;20200;-76
2024/01/04 00:36:46;;;;;;;1.37;1.27;;;9.80;99.90;;;;;;5076153;28;20495;-76
2024/01/04 00:39:11;;;;;;;5.97;1.60;;;9.70;99.90;;;;;;5074786;28;20189;-74
2024/01/04 00:41:37;;;;;;;6.10;1.60;;;9.70;99.90;;;;;;5073184;28;20174;-76
2024/01/04 00:44:02;;;;;;;1.83;1.03;;;9.70;99.90;;;;;;5075562;28;20312;-75
2024/01/04 00:46:28;;;;;;;4.57;1.50;;;9.70;99.90;;;;;;5075496;28;20625;-76
2024/01/04 00:48:53;;;;;;;1.73;1.40;;;9.70;99.90;;;;;;5074290;28;20166;-76
2024/01/04 00:51:19;;;;;;;1.70;1.60;;;9.70;99.90;;;;;;5075269;28;20215;-76
2024/01/04 00:53:44;;;;;;;2.97;1.70;;;9.70;99.90;;;;;;5074887;28;20286;-76
2024/01/04 00:56:10;;;;;;;3.13;1.57;;;9.60;99.90;;;;;;5075230;28;20170;-76
2024/01/04 00:58:35;;;;;;;1.70;1.13;;;9.70;99.90;;;;;;5075178;28;20174;-75
2024/01/04 01:01:03;;;;;;;4.90;1.20;;;9.60;99.90;;;;;;5075307;28;20174;-76
2024/01/04 01:03:29;;;;;;;2.13;1.20;;;9.50;99.90;;;;;;5073752;28;20197;-76
2024/01/04 01:05:56;;;;;;;1.90;1.10;;;9.60;99.90;;;;;;5074993;28;20404;-74
2024/01/04 01:08:21;;;;;;;4.13;1.40;;;9.60;99.90;;;;;;5073873;28;20633;-74
2024/01/04 01:10:47;;;;;;;6.20;1.60;;;9.60;99.90;;;;;;5073721;28;20462;-74
2024/01/04 01:13:19;;;;;;;1.57;1.23;;;9.60;99.90;;;;;;5073397;28;20190;-74
2024/01/04 01:15:48;;;;;;;1.73;1.07;;;9.50;99.90;;;;;;5073067;28;20636;-74
2024/01/04 01:18:14;;;;;;;1.87;1.47;;;9.50;99.90;;;;;;5074969;28;20443;-75
2024/01/04 01:20:39;;;;;;;3.60;1.80;;;9.50;99.90;;;;;;5074943;28;20484;-76
2024/01/04 01:23:05;;;;;;;3.03;2.13;;;9.60;99.90;;;;;;5073344;28;20661;-76
2024/01/04 01:25:30;;;;;;;1.37;1.27;;;9.60;99.90;;;;;;5073331;28;20250;-76
2024/01/04 01:27:56;;;;;;;3.07;1.40;;;9.50;99.90;;;;;;5074723;28;20162;-75
2024/01/04 01:30:21;;;;;;;2.60;1.27;;;9.60;99.90;;;;;;5073645;28;20266;-76
2024/01/04 01:32:47;;;;;;;4.67;1.43;;;9.60;99.90;;;;;;5074370;28;20672;-76
2024/01/04 01:35:13;;;;;;;1.33;1.20;;;9.60;99.90;;;;;;5074842;28;20261;-76
2024/01/04 01:37:39;;;;;;;2.90;1.20;;;9.60;99.90;;;;;;5074448;28;20695;-75
2024/01/04 01:40:06;;;;;;;2.10;1.47;;;9.50;99.90;;;;;;5073769;28;20448;-74
2024/01/04 01:42:32;;;;;;;4.40;1.63;;;9.50;99.90;;;;;;5071435;28;20821;-74
2024/01/04 01:44:59;;;;;;;2.57;1.40;;;9.50;99.90;;;;;;5071859;28;20409;-76
2024/01/04 01:47:26;;;;;;;2.87;1.30;;;9.40;99.90;;;;;;5072901;28;20621;-74
2024/01/04 01:49:52;;;;;;;5.07;1.80;;;9.40;99.90;;;;;;5072979;28;20405;-74
2024/01/04 01:52:18;;;;;;;1.40;1.10;;;9.30;99.90;;;;;;5072492;28;20523;-74
2024/01/04 01:54:46;;;;;;;2.97;1.87;;;9.40;99.90;;;;;;5072956;28;20408;-76
2024/01/04 01:57:12;;;;;;;1.20;1.07;;;9.30;99.90;;;;;;5074412;28;20919;-76
2024/01/04 01:59:37;;;;;;;1.63;1.17;;;9.40;99.90;;;;;;5071839;28;20452;-74
2024/01/04 02:02:03;;;;;;;2.27;1.30;;;9.40;99.90;;;;;;5071011;28;20170;-74
2024/01/04 02:04:29;;;;;;;3.93;1.87;;;9.50;99.90;;;;;;5072360;28;20189;-74
2024/01/04 02:06:54;;;;;;;3.37;1.50;;;9.50;99.90;;;;;;5072722;28;20405;-74
2024/01/04 02:09:20;;;;;;;2.50;1.70;;;9.50;99.90;;;;;;5072690;28;20193;-74
2024/01/04 02:11:45;;;;;;;2.83;1.40;;;9.50;99.90;;;;;;5072592;28;20170;-74
2024/01/04 02:14:11;;;;;;;2.70;1.40;;;9.50;99.90;;;;;;5072258;28;20186;-74
2024/01/04 02:16:36;;;;;;;5.13;1.73;;;9.50;99.90;;;;;;5071251;28;20178;-74
2024/01/04 02:19:06;;;;;;;3.60;2.00;;;9.50;99.90;;;;;;5072809;28;20588;-76
2024/01/04 02:21:36;;;;;;;5.83;1.77;;;9.60;99.90;;;;;;5073659;28;20560;-76
2024/01/04 02:24:02;;;;;;;2.87;2.00;;;9.60;99.90;;;;;;5072466;28;20432;-75
2024/01/04 02:26:27;;;;;;;1.23;1.13;;;9.60;99.90;;;;;;5071642;28;20901;-74
2024/01/04 02:28:53;;;;;;;3.30;1.30;;;9.70;99.90;;;;;;5072362;28;20548;-74
2024/01/04 02:31:18;;;;;;;4.87;2.37;;;9.70;99.90;;;;;;5073242;28;20249;-76
2024/01/04 02:33:43;;;;;;;4.93;1.90;;;9.80;99.90;;;;;;5070954;28;20285;-74
2024/01/04 02:36:09;;;;;;;4.70;1.90;;;9.80;99.90;;;;;;5070892;28;20170;-74
2024/01/04 02:38:34;;;;;;;2.30;1.53;;;9.70;99.90;;;;;;5072083;28;20694;-74
2024/01/04 02:41:00;;;;;;;6.30;1.50;;;9.80;99.90;;;;;;5072215;28;20220;-74
2024/01/04 02:43:25;;;;;;;4.20;1.47;;;9.80;99.90;;;;;;5071884;28;20189;-74
2024/01/04 02:45:51;;;;;;;2.23;1.20;;;9.80;99.90;;;;;;5072008;28;20181;-74
2024/01/04 02:48:16;;;;;;;5.80;1.63;;;9.80;99.90;;;;;;5072054;28;20166;-75
2024/01/04 02:50:42;;;;;;;2.80;1.70;;;9.80;99.90;;;;;;5072025;28;20174;-75
2024/01/04 02:53:07;;;;;;;3.50;1.90;;;9.90;99.90;;;;;;5071558;28;20213;-74
2024/01/04 02:55:33;;;;;;;7.33;2.47;;;9.90;99.90;;;;;;5072337;28;20170;-74
2024/01/04 02:57:58;;;;;;;3.03;1.90;;;9.90;99.90;;;;;;5071994;28;20177;-74
2024/01/04 03:00:24;;;;;;;5.40;1.43;;;9.80;99.90;;;;;;5070613;28;20636;-74
2024/01/04 03:02:50;;;;;;;2.70;1.33;;;9.80;99.90;;;;;;5071588;28;20265;-75
2024/01/04 03:05:18;;;;;;;4.13;1.90;;;9.80;99.90;;;;;;5071834;28;20193;-74
2024/01/04 03:07:43;;;;;;;2.27;2.07;;;9.80;99.90;;;;;;5072188;28;20588;-76
2024/01/04 03:10:09;;;;;;;3.83;1.77;;;9.80;99.90;;;;;;5072180;28;20405;-74
2024/01/04 03:12:37;;;;;;;2.27;1.30;;;9.80;99.90;;;;;;5071540;28;20216;-75
2024/01/04 03:15:05;;;;;;;1.70;1.60;;;9.90;99.90;;;;;;5071695;28;20433;-74
2024/01/04 03:17:31;;;;;;;5.90;2.37;;;9.80;99.90;;;;;;5070493;28;20422;-74
2024/01/04 03:19:56;;;;;;;3.00;1.57;;;9.70;99.90;;;;;;5071564;28;20456;-75
2024/01/04 03:22:22;;;;;;;3.90;1.80;;;9.80;99.90;;;;;;5071247;28;20677;-75
2024/01/04 03:24:47;;;;;;;5.60;1.60;;;9.80;99.90;;;;;;5072864;28;20169;-76
2024/01/04 03:27:13;;;;;;;5.00;1.70;;;9.80;99.90;;;;;;5072230;28;20212;-74
2024/01/04 03:29:39;;;;;;;2.50;1.57;;;9.90;99.90;;;;;;5071617;28;20528;-74
2024/01/04 03:32:05;;;;;;;6.23;1.40;;;9.80;99.90;;;;;;5071415;28;20177;-74
2024/01/04 03:34:31;;;;;;;6.27;1.90;;;9.80;99.90;;;;;;5072643;28;20424;-76
2024/01/04 03:36:56;;;;;;;3.13;1.80;;;9.70;99.90;;;;;;5072851;28;20261;-76
2024/01/04 03:39:22;;;;;;;4.50;1.63;;;9.60;99.90;;;;;;5076112;28;20665;-76
2024/01/04 03:41:47;;;;;;;2.93;1.73;;;9.50;99.90;;;;;;5076797;28;20584;-76
2024/01/04 03:44:13;;;;;;;3.33;1.90;;;9.40;99.90;;;;;;5076363;28;20711;-76
2024/01/04 03:46:38;;;;;;;6.50;1.77;;;9.30;99.90;;;;;;5076554;28;20170;-75
2024/01/04 03:49:04;;;;;;;2.53;1.67;;;9.30;99.90;;;;;;5076347;28;20166;-76
2024/01/04 03:51:29;;;;;;;8.63;1.90;;;9.20;99.90;;;;;;5076679;28;20640;-76
2024/01/04 03:53:56;;;;;;;5.23;2.00;;;9.10;99.90;;;;;;5073755;28;20205;-74
2024/01/04 03:56:21;;;;;;;3.60;2.27;;;9.10;99.90;;;;;;5075546;28;20167;-76
2024/01/04 03:58:47;;;;;;;3.70;2.10;;;9.00;99.90;;;;;;5076273;28;20444;-75
2024/01/04 04:01:12;;;;;;;6.70;2.10;;;9.00;99.90;;;;;;5076334;28;20158;-74
2024/01/04 04:03:38;;;;;;;4.53;3.20;;;9.00;99.90;;;;;;5073508;28;20194;-74
2024/01/04 04:06:07;;;;;;;3.40;2.67;;;9.00;99.90;;;;;;5074876;28;20167;-74
2024/01/04 04:08:33;;;;;;;2.67;2.23;;;9.00;99.90;;;;;;5075047;28;20567;-74
2024/01/04 04:10:59;;;;;;;5.10;2.03;;;9.00;99.90;;;;;;5073685;28;20429;-74
2024/01/04 04:13:25;;;;;;;2.63;1.87;;;9.00;99.90;;;;;;5074674;28;20188;-74
2024/01/04 04:15:51;;;;;;;6.33;2.87;;;9.00;99.90;;;;;;5075739;28;20164;-76
2024/01/04 04:18:16;;;;;;;6.30;2.40;;;9.00;99.90;;;;;;5075937;28;20491;-76
2024/01/04 04:20:42;;;;;;;11.63;2.90;;;9.00;99.90;;;;;;5074241;28;20228;-76
2024/01/04 04:23:07;;;;;;;4.57;2.87;;;9.10;99.90;;;;;;5075697;28;20209;-75
2024/01/04 04:25:36;;;;;;;7.90;2.97;;;9.20;99.90;;;;;;5075696;28;20173;-76
2024/01/04 04:28:02;;;;;;;8.93;2.53;;;9.20;99.90;;;;;;5075794;28;20190;-76
2024/01/04 04:30:28;;;;;;;7.17;2.10;;;9.20;99.90;;;;;;5074983;28;20450;-74
2024/01/04 04:32:54;;;;;;;4.97;2.77;;;9.30;99.90;;;;;;5074241;28;20428;-75
2024/01/04 04:35:19;;;;;;;6.90;2.60;;;9.30;99.90;;;;;;5074091;28;20424;-75
2024/01/04 04:37:45;;;;;;;9.70;3.70;;;9.20;99.90;;;;;;5075564;28;20201;-76
2024/01/04 04:40:11;;;;;;;2.83;2.60;;;9.20;99.90;;;;;;5075243;28;20209;-74
2024/01/04 04:42:36;;;;;;;8.10;3.80;;;9.10;99.90;;;;;;5075021;28;20173;-76
2024/01/04 04:45:02;;;;;;;4.73;3.53;;;9.10;99.90;;;;;;5074076;28;20780;-76
2024/01/04 04:47:28;;;;;;;3.60;3.30;;;9.10;99.90;;;;;;5075581;28;20184;-76
2024/01/04 04:49:53;;;;;;;3.90;3.37;;;9.10;99.90;;;;;;5072995;28;20174;-74
2024/01/04 04:52:19;;;;;;;3.20;2.90;;;9.20;99.90;;;;;;5073841;28;20186;-74
2024/01/04 04:54:44;;;;;;;8.17;3.90;;;9.20;99.90;;;;;;5072739;28;20170;-74
2024/01/04 04:57:10;;;;;;;9.13;3.93;;;9.20;99.90;;;;;;5074152;28;20545;-75
2024/01/04 04:59:35;;;;;;;5.00;3.00;;;9.20;99.90;;;;;;5073976;28;20665;-75
2024/01/04 05:02:01;;;;;;;3.43;3.10;;;9.30;99.90;;;;;;5073932;28;20249;-74
2024/01/04 05:04:26;;;;;;;7.30;3.23;;;9.20;99.90;;;;;;5072348;28;20190;-76
2024/01/04 05:06:52;;;;;;;2.63;2.43;;;9.40;99.90;;;;;;5073752;28;20621;-75
2024/01/04 05:09:17;;;;;;;2.80;1.93;;;9.40;99.90;;;;;;5073894;28;20174;-74
2024/01/04 05:11:43;;;;;;;3.30;2.00;;;9.40;99.90;;;;;;5073835;28;20633;-74
2024/01/04 05:14:10;;;;;;;5.47;2.03;;;9.40;99.90;;;;;;5073436;28;20190;-74
2024/01/04 05:16:35;;;;;;;4.67;3.33;;;9.40;99.90;;;;;;5073757;28;20843;-74
2024/01/04 05:19:01;;;;;;;2.40;1.30;;;9.40;99.90;;;;;;5073570;28;20483;-74
2024/01/04 05:21:33;;;;;;;3.10;1.87;;;9.30;99.90;;;;;;5073414;28;20169;-74
2024/01/04 05:23:58;;;;;;;3.00;1.20;;;9.30;99.90;;;;;;5071863;28;20190;-74
2024/01/04 05:26:24;;;;;;;1.60;1.50;;;9.10;99.90;;;;;;5073505;28;20763;-74
2024/01/04 05:28:49;;;;;;;2.13;1.10;;;9.10;99.90;;;;;;5073526;28;20581;-74
2024/01/04 05:31:18;;;;;;;4.10;1.67;;;9.10;99.90;;;;;;5073484;28;20715;-74
2024/01/04 05:33:44;;;;;;;1.40;1.23;;;9.00;99.90;;;;;;5072966;28;20665;-74
2024/01/04 05:36:10;;;;;;;1.10;1.00;;;8.90;99.90;;;;;;5073292;28;20966;-74
2024/01/04 05:38:35;;;;;;;1.83;1.27;;;8.90;99.90;;;;;;5073259;28;20416;-76
2024/01/04 05:41:01;;;;;;;1.50;1.37;;;9.00;99.90;;;;;;5073358;28;20608;-76
2024/01/04 05:43:28;;;;;;;3.47;2.50;;;9.00;99.90;;;;;;5074360;28;20261;-76
2024/01/04 05:45:54;;;;;;;3.40;1.73;;;9.10;99.90;;;;;;5074724;28;20189;-76
2024/01/04 05:48:19;;;;;;;1.67;1.30;;;9.10;99.90;;;;;;5067289;28;20773;-76
2024/01/04 05:50:45;;;;;;;2.03;1.37;;;9.00;99.90;;;;;;5052000;28;20174;-74
2024/01/04 05:53:11;;;;;;;2.30;1.27;;;8.90;99.90;;;;;;5052530;28;20210;-74
2024/01/04 05:55:36;;;;;;;1.60;1.30;;;9.00;99.90;;;;;;5053766;28;20599;-74
2024/01/04 05:58:02;;;;;;;5.70;0.87;;;9.00;99.90;;;;;;5052942;28;20171;-74
2024/01/04 06:00:27;;;;;;;1.27;1.17;;;8.90;99.90;;;;;;5052859;28;20688;-74
2024/01/04 06:02:53;;;;;;;2.60;1.40;;;9.00;99.90;;;;;;5052418;28;20179;-74
2024/01/04 06:05:18;;;;;;;1.37;1.17;;;8.90;99.90;;;;;;5052786;28;20163;-74
2024/01/04 06:07:44;;;;;;;1.30;1.20;;;8.90;99.90;;;;;;5052785;28;20167;-74
2024/01/04 06:10:09;;;;;;;1.70;1.33;;;8.90;99.90;;;;;;5052686;28;20174;-74
2024/01/04 06:12:35;;;;;;;1.67;1.57;;;8.90;99.90;;;;;;5052460;28;20171;-74
2024/01/04 06:15:01;;;;;;;1.60;1.50;;;8.80;99.90;;;;;;5052658;28;20266;-75
2024/01/04 06:17:26;;;;;;;4.93;1.93;;;8.80;99.90;;;;;;5052519;28;20533;-74
2024/01/04 06:19:52;;;;;;;3.40;2.33;;;8.80;99.90;;;;;;5052431;28;20503;-74
2024/01/04 06:22:17;;;;;;;2.20;1.37;;;8.80;99.90;;;;;;5052266;28;20170;-74
2024/01/04 06:24:46;;;;;;;1.67;1.40;;;8.80;99.90;;;;;;5052362;28;20213;-74
2024/01/04 06:27:11;;;;;;;2.00;1.63;;;8.80;99.90;;;;;;5052308;28;20222;-75
2024/01/04 06:29:37;;;;;;;2.50;1.50;;;8.80;99.90;;;;;;5053172;28;20401;-74
2024/01/04 06:32:03;;;;;;;1.10;1.00;;;8.70;99.90;;;;;;5052072;28;20175;-74
2024/01/04 06:34:28;;;;;;;2.77;1.20;;;8.80;99.90;;;;;;5051930;28;20270;-74
2024/01/04 06:36:54;;;;;;;2.03;1.33;;;8.80;99.90;;;;;;5052202;28;20703;-74
2024/01/04 06:39:19;;;;;;;1.00;0.90;;;8.80;99.90;;;;;;5052066;28;20224;-74
2024/01/04 06:41:45;;;;;;;1.63;1.03;;;8.90;99.90;;;;;;5052152;28;20178;-74
2024/01/04 06:44:11;;;;;;;1.60;0.90;;;8.80;99.90;;;;;;5050457;28;20198;-74
2024/01/04 06:46:36;;;;;;;1.70;1.00;;;8.90;99.90;;;;;;5052150;28;20232;-75
2024/01/04 06:49:02;;;;;;;3.53;0.93;;;8.90;99.90;;;;;;5050578;28;20561;-74
2024/01/04 06:51:27;;;;;;;1.00;0.80;;;9.00;99.90;;;;;;5052328;28;20554;-76
2024/01/04 06:53:53;;;;;;;0.90;0.70;;;9.10;99.90;;;;;;5051473;28;20238;-76
2024/01/04 06:56:19;;;;;;;0.93;0.83;;;9.20;99.90;;;;;;5052891;28;20622;-76
2024/01/04 06:58:45;;;;;;;3.10;0.80;;;9.20;99.90;;;;;;5051461;28;20175;-75
2024/01/04 07:01:11;;;;;;;1.63;0.83;;;9.20;99.90;;;;;;5053012;28;20496;-76
2024/01/04 07:03:38;;;;;;;1.07;0.97;;;9.20;99.90;;;;;;5051249;28;20865;-76
2024/01/04 07:06:04;;;;;;;0.83;0.70;;;9.10;99.90;;;;;;5051663;28;20205;-75
2024/01/04 07:08:29;;;;;;;1.23;1.00;;;9.00;99.90;;;;;;5051743;28;20441;-76
2024/01/04 07:10:55;;;;;;;1.27;1.17;;;9.00;99.90;;;;;;5052564;28;20588;-76
2024/01/04 07:13:21;;;;;;;1.53;1.17;;;8.90;99.90;;;;;;5051506;28;20226;-75
2024/01/04 07:15:47;;;;;;;1.30;1.07;;;8.90;99.90;;;;;;5052394;28;20171;-76
2024/01/04 07:18:12;;;;;;;1.40;1.20;;;8.90;99.90;;;;;;5052604;28;20512;-75
2024/01/04 07:20:41;;;;;;;3.00;1.60;;;8.90;99.90;;;;;;5051908;28;20203;-74
2024/01/04 07:23:06;;;;;;;1.67;1.30;;;8.90;99.90;;;;;;5051358;28;20190;-74
2024/01/04 07:25:34;;;;;;;3.40;1.27;;;8.90;99.90;;;;;;5052057;28;20397;-76
2024/01/04 07:27:59;;;;;;;2.27;1.53;;;9.00;99.90;;;;;;5051206;28;20707;-76
2024/01/04 07:30:25;;;;;;;4.33;1.43;;;9.00;99.90;;;;;;5052365;28;20406;-75
2024/01/04 07:32:50;;;;;;;4.23;1.50;;;8.90;99.90;;;;;;5050881;28;20248;-75
2024/01/04 07:35:19;;;;;;;3.30;2.37;;;8.90;99.90;;;;;;5052095;28;20608;-73
2024/01/04 07:37:44;;;;;;;2.90;2.00;;;8.90;99.90;;;;;;5051626;28;20167;-71
2024/01/04 07:40:11;;;;;;;1.70;1.40;;;8.90;99.90;;;;;;5051573;28;20452;-73
2024/01/04 07:42:36;;;;;;;1.73;1.37;;;9.00;99.90;;;;;;5051296;28;20177;-71
2024/01/04 07:45:02;;;;;;;2.40;1.60;;;9.10;99.90;;;;;;5051267;28;20513;-72
2024/01/04 07:47:28;;;;;;;2.80;1.70;;;9.10;99.90;;;;;;5051679;28;20641;-72
2024/01/04 07:49:53;;;;;;;3.40;2.30;;;9.10;99.90;;;;;;5051425;28;20163;-72
2024/01/04 07:52:19;;;;;;;3.10;2.30;;;9.00;99.90;;;;;;5050971;28;20175;-72
2024/01/04 07:54:45;;;;;;;4.23;2.80;;;9.00;99.90;;;;;;5051357;28;20179;-73
2024/01/04 07:57:12;;;;;;;2.73;1.70;;;8.90;99.90;;;;;;5051381;28;20167;-70
2024/01/04 07:59:37;;;;;;;3.73;1.77;;;9.00;99.90;;;;;;5051177;28;20481;-71
2024/01/04 08:02:03;;;;;;;3.30;2.27;;;9.10;99.90;;;;;;5051277;28;20441;-71
2024/01/04 08:04:29;;;;;;;7.53;3.30;;;9.20;99.90;;;;;;5051031;28;20694;-72
2024/01/04 08:06:55;;;;;;;4.03;2.43;;;9.20;99.90;;;;;;5051312;28;20833;-72
2024/01/04 08:09:21;;;;;;;1.70;1.50;;;9.20;99.90;;;;;;5051308;28;20163;-71
2024/01/04 08:11:47;;;;;;;3.87;1.93;;;9.20;99.90;;;;;;5051288;28;20843;-71
2024/01/04 08:14:12;;;;;;;3.53;2.20;;;9.30;99.90;;;;;;5050827;28;20653;-71
2024/01/04 08:16:38;;;;;;;3.53;1.80;;;9.30;99.90;;;;;;5051241;28;20194;-72
2024/01/04 08:19:04;;;;;;;4.17;2.17;;;9.40;99.90;;;;;;5050904;28;20657;-72
2024/01/04 08:21:29;;;;;;;3.80;1.97;;;9.30;99.90;;;;;;5051208;28;20164;-72
2024/01/04 08:23:55;;;;;;;3.20;2.20;;;9.30;99.90;;;;;;5050888;28;20205;-73
2024/01/04 08:26:20;;;;;;;3.63;2.13;;;9.30;99.90;;;;;;5054019;28;20623;-71
2024/01/04 08:28:46;;;;;;;3.53;1.63;;;9.30;99.90;;;;;;5054531;28;20159;-72
2024/01/04 08:31:12;;;;;;;3.33;1.67;;;9.40;99.90;;;;;;5054501;28;20163;-72
2024/01/04 08:33:37;;;;;;;1.70;1.40;;;9.50;99.90;;;;;;5054319;28;20209;-71
2024/01/04 08:36:04;;;;;;;4.90;1.50;;;9.50;99.90;;;;;;5054409;28;20522;-72
2024/01/04 08:38:30;;;;;;;4.80;1.73;;;9.60;99.90;;;;;;5054452;28;20751;-73
2024/01/04 08:40:56;;;;;;;4.77;2.87;;;9.70;99.90;;;;;;5054275;28;20449;-72
2024/01/04 08:43:21;;;;;;;4.33;2.13;;;9.70;99.90;;;;;;5054011;28;20447;-71
2024/01/04 08:45:47;;;;;;;7.67;2.50;;;9.80;99.90;;;;;;5054196;28;20163;-72
2024/01/04 08:48:13;;;;;;;7.57;2.13;;;9.80;99.90;;;;;;5054429;28;20700;-72
2024/01/04 08:50:39;;;;;;;2.33;1.80;;;9.80;99.90;;;;;;5054207;28;20401;-72
2024/01/04 08:53:04;;;;;;;4.50;1.57;;;9.90;99.90;;;;;;5053767;28;20203;-72
2024/01/04 08:55:30;;;;;;;4.17;2.30;;;9.90;99.90;;;;;;5054171;28;20195;-69
2024/01/04 08:57:57;;;;;;;4.03;1.60;;;9.90;99.90;;;;;;5054159;28;20190;-70
2024/01/04 09:00:23;;;;;;;3.30;1.50;;;10.00;99.90;;;;;;5053972;28;20453;-71
2024/01/04 09:02:48;;;;;;;3.40;1.53;;;10.10;99.90;;;;;;5053716;28;20471;-70
2024/01/04 09:05:14;;;;;;;2.43;1.30;;;10.00;99.90;;;;;;5053904;28;20707;-72
2024/01/04 09:07:39;;;;;;;4.13;1.60;;;10.10;99.90;;;;;;5054010;28;20167;-71
2024/01/04 09:10:05;;;;;;;2.10;1.93;;;10.10;99.90;;;;;;5053971;28;20171;-70
2024/01/04 09:12:31;;;;;;;7.23;1.80;;;10.20;99.90;;;;;;5053528;28;20175;-71
2024/01/04 09:14:58;;;;;;;2.83;2.37;;;10.40;99.90;;;;;;5053987;28;20485;-71
2024/01/04 09:17:25;;;;;;;3.73;1.50;;;11.30;99.90;;;;;;5053746;28;20398;-70
2024/01/04 09:19:50;;;;;;;3.77;1.50;;;11.80;99.90;;;;;;5053617;28;20441;-72
2024/01/04 09:22:16;;;;;;;1.70;1.40;;;11.90;99.90;;;;;;5053583;28;20402;-70
2024/01/04 09:24:42;;;;;;;1.67;1.23;;;11.80;99.90;;;;;;5053234;28;20267;-68
2024/01/04 09:27:07;;;;;;;3.40;1.50;;;11.70;99.90;;;;;;5052233;28;20244;-70
2024/01/04 09:29:33;;;;;;;14.93;2.50;;;11.60;99.90;;;;;;5053448;28;20208;-71
2024/01/04 09:32:00;;;;;;;2.00;1.53;;;11.50;99.90;;;;;;5052307;28;20179;-71
2024/01/04 09:34:26;;;;;;;3.23;1.60;;;11.50;99.90;;;;;;5053030;28;20183;-70
2024/01/04 09:36:51;;;;;;;2.53;1.33;;;11.30;99.90;;;;;;5053091;28;20397;-70
2024/01/04 09:39:20;;;;;;;2.20;1.50;;;11.30;99.90;;;;;;5052570;28;20194;-70
2024/01/04 09:41:47;;;;;;;1.23;1.00;;;11.30;99.90;;;;;;5053090;28;20205;-70
2024/01/04 09:44:13;;;;;;;2.33;1.23;;;11.20;99.90;;;;;;5052827;28;20467;-70
2024/01/04 09:46:40;;;;;;;1.80;1.00;;;11.20;99.90;;;;;;5053157;28;20402;-70
2024/01/04 09:49:07;;;;;;;2.40;1.63;;;11.10;99.90;;;;;;5053076;28;20417;-69
2024/01/04 09:51:34;;;;;;;1.83;1.40;;;11.00;99.90;;;;;;5052966;28;20791;-70
2024/01/04 09:54:04;;;;;;;2.17;1.63;;;10.90;99.90;;;;;;5051593;28;20870;-70
2024/01/04 09:56:32;;;;;;;1.50;1.23;;;10.90;99.90;;;;;;5052958;28;20409;-70
2024/01/04 09:58:58;;;;;;;2.80;1.47;;;10.70;99.90;;;;;;5052842;28;20449;-69
2024/01/04 10:01:34;;;;;;;1.50;1.33;;;10.70;99.90;;;;;;5052877;28;20405;-71
2024/01/04 10:04:04;;;;;;;1.43;1.33;;;10.70;99.90;;;;;;5052544;28;20500;-69
2024/01/04 10:06:34;;;;;;;1.50;1.07;;;10.60;99.90;;;;;;5052851;28;20735;-69
2024/01/04 10:09:30;;;;;;;2.40;1.50;;;10.60;99.90;;;;;;5052861;28;20402;-69
2024/01/04 10:12:08;;;;;;;3.40;1.67;;;11.00;99.90;;;;;;5052008;28;20418;-70
2024/01/04 10:14:34;;;;;;;2.23;1.60;;;11.20;99.90;;;;;;5052520;28;20445;-69
2024/01/04 10:17:00;;;;;;;3.23;1.80;;;11.30;99.90;;;;;;5052521;28;20463;-70
2024/01/04 10:19:27;;;;;;;6.30;2.43;;;11.70;99.90;;;;;;5052716;28;20512;-70
2024/01/04 10:21:53;;;;;;;3.30;1.90;;;11.80;99.90;;;;;;5052454;28;20398;-69
2024/01/04 10:24:25;;;;;;;4.73;1.90;;;11.80;99.90;;;;;;5051908;28;20433;-70
2024/01/04 10:26:58;;;;;;;2.73;2.03;;;11.50;99.90;;;;;;5048341;28;20246;-70
2024/01/04 10:29:28;;;;;;;6.10;1.73;;;11.40;99.90;;;;;;5052260;28;20880;-70
2024/01/04 10:32:04;;;;;;;1.27;1.17;;;11.50;99.90;;;;;;5052309;28;20510;-70
2024/01/04 10:34:33;;;;;;;4.20;1.97;;;11.50;99.90;;;;;;5052022;28;20821;-69
2024/01/04 10:37:17;;;;;;;4.40;1.57;;;11.20;99.90;;;;;;5052205;28;20409;-69
2024/01/04 10:39:55;;;;;;;1.93;1.37;;;11.20;99.90;;;;;;5052091;28;20444;-70
2024/01/04 10:42:21;;;;;;;4.13;1.40;;;11.30;99.90;;;;;;5051791;28;20462;-70
2024/01/04 10:44:54;;;;;;;1.57;1.47;;;11.40;99.90;;;;;;5052062;28;20492;-70
2024/01/04 10:47:20;;;;;;;1.50;1.23;;;11.10;99.90;;;;;;5051563;28;20210;-69
2024/01/04 10:49:50;;;;;;;5.63;1.17;;;10.90;99.90;;;;;;5051967;28;20874;-69
2024/01/04 10:52:17;;;;;;;2.90;1.40;;;10.90;99.90;;;;;;5051645;28;20183;-69
2024/01/04 10:54:43;;;;;;;2.97;1.33;;;10.90;99.90;;;;;;5051797;28;20429;-70
2024/01/04 10:57:10;;;;;;;3.00;1.33;;;10.90;99.90;;;;;;5051938;28;20536;-70
2024/01/04 10:59:36;;;;;;;6.27;1.43;;;11.10;99.90;;;;;;5051679;28;20977;-71
2024/01/04 11:02:03;;;;;;;5.43;1.63;;;11.10;99.90;;;;;;5051746;28;20427;-70
2024/01/04 11:04:30;;;;;;;7.27;1.20;;;11.10;99.90;;;;;;5051487;28;20502;-70
2024/01/04 11:06:57;;;;;;;2.60;1.50;;;11.10;99.90;;;;;;5051765;28;20393;-70
2024/01/04 11:09:24;;;;;;;4.70;1.67;;;11.20;99.90;;;;;;5051707;28;20492;-70
2024/01/04 11:11:54;;;;;;;5.83;1.80;;;11.20;99.90;;;;;;5051716;28;20747;-70
2024/01/04 11:14:21;;;;;;;6.10;1.53;;;11.10;99.90;;;;;;5051447;28;20431;-70
2024/01/04 11:17:14;;;;;;;4.70;3.10;;;11.10;99.90;;;;;;5051720;28;20409;-71
2024/01/04 11:20:00;;;;;;;9.90;3.23;;;11.00;99.90;;;;;;5051562;28;20472;-69
2024/01/04 11:23:04;;;;;;;9.87;2.90;;;11.00;99.90;;;;;;5050224;28;20769;-69
2024/01/04 11:25:48;;;;;;;9.43;2.63;;;10.90;99.90;;;;;;5051640;28;20409;-69
2024/01/04 11:28:14;;;;;;;7.60;1.80;;;10.70;99.90;;;;;;5051650;28;20401;-70
2024/01/04 11:30:39;;;;;;;4.27;2.43;;;10.70;99.90;;;;;;5051912;28;20420;-70
2024/01/04 11:33:05;;;;;;;6.10;2.37;;;10.80;99.90;;;;;;5051482;28;20924;-70
2024/01/04 11:35:35;;;;;;;8.60;1.77;;;10.80;99.90;;;;;;5051765;28;20182;-71
2024/01/04 11:38:06;;;;;;;7.17;1.93;;;10.70;99.90;;;;;;5051540;28;20171;-70
2024/01/04 11:40:32;;;;;;;10.93;2.60;;;10.60;99.90;;;;;;5051376;28;20476;-70
2024/01/04 11:42:59;;;;;;;16.27;2.17;;;10.50;99.90;;;;;;5049868;28;21034;-69
2024/01/04 11:45:29;;;;;;;7.47;2.80;;;10.50;99.90;;;;;;5051406;28;20162;-70
2024/01/04 11:47:55;;;;;;;6.40;2.63;;;10.40;99.90;;;;;;5051483;28;20401;-70
2024/01/04 11:50:25;;;;;;;9.70;2.40;;;10.30;99.90;;;;;;5051423;28;20465;-69
2024/01/04 11:53:00;;;;;;;7.10;3.00;;;10.30;99.90;;;;;;5050966;28;20264;-69
2024/01/04 11:55:26;;;;;;;8.03;3.30;;;10.30;99.90;;;;;;5050617;28;20413;-70
2024/01/04 11:58:11;;;;;;;4.70;2.30;;;10.20;99.90;;;;;;5051403;28;20412;-70
2024/01/04 12:00:56;;;;;;;13.63;2.70;;;10.30;99.90;;;;;;5054923;28;20445;-70
2024/01/04 12:03:28;;;;;;;6.10;2.43;;;10.20;99.90;;;;;;5054841;28;20417;-70
2024/01/04 12:05:56;;;;;;;10.40;2.23;;;10.20;99.90;;;;;;5055064;28;20393;-70
2024/01/04 12:08:29;;;;;;;5.50;2.50;;;10.30;99.90;;;;;;5055109;28;20962;-70
2024/01/04 12:11:05;;;;;;;9.03;2.37;;;10.30;99.90;;;;;;5055087;28;20401;-69
2024/01/04 12:13:31;;;;;;;20.20;2.87;;;10.30;99.90;;;;;;5054799;28;20444;-69
2024/01/04 12:15:57;;;;;;;8.63;2.47;;;10.30;99.90;;;;;;5053573;28;20419;-69
2024/01/04 12:18:23;;;;;;;8.63;1.90;;;10.30;99.90;;;;;;5055068;28;20401;-69
2024/01/04 12:20:49;;;;;;;4.77;2.40;;;10.40;99.90;;;;;;5053469;28;20201;-69
2024/01/04 12:23:15;;;;;;;3.90;1.67;;;10.50;99.90;;;;;;5054676;28;20187;-69
2024/01/04 12:25:41;;;;;;;8.03;2.87;;;10.70;99.90;;;;;;5054669;28;20428;-72
2024/01/04 12:28:08;;;;;;;5.30;2.23;;;10.80;99.90;;;;;;5054918;28;20909;-71
2024/01/04 12:30:36;;;;;;;11.57;2.70;;;11.00;99.90;;;;;;5054501;28;20413;-70
2024/01/04 12:33:03;;;;;;;4.47;1.80;;;11.30;99.90;;;;;;5054222;28;20520;-70
2024/01/04 12:35:28;;;;;;;8.60;1.83;;;11.40;99.90;;;;;;5054400;28;20409;-70
2024/01/04 12:38:04;;;;;;;6.30;2.33;;;11.50;99.90;;;;;;5054398;28;20463;-70
2024/01/04 12:40:45;;;;;;;10.50;2.30;;;11.40;99.90;;;;;;5054401;28;20210;-71
2024/01/04 12:43:12;;;;;;;9.50;2.77;;;11.70;99.90;;;;;;5053880;28;20417;-71
2024/01/04 12:45:38;;;;;;;9.97;1.80;;;11.80;99.90;;;;;;5054139;28;20406;-70
2024/01/04 12:48:07;;;;;;;5.87;2.33;;;12.00;99.90;;;;;;5054287;28;20462;-70
2024/01/04 12:50:34;;;;;;;8.87;2.27;;;11.80;99.90;;;;;;5054400;28;20463;-70